Time;durP1;ratioP1;P1;durP2;ratioP2;P2;SDS_P1;SDS_P2;PMS_P1;PMS_P2;Temp;Humidity;BMP_temperature;BMP_pressure;BME280_temperature;BME280_humidity;BME280_pressure;Samples;Min_cycle;Max_cycle;Signal;HPM_P1;HPM_P2
2022/03/29 04:02:38;;;;;;;22.23;10.65;;;7.40;99.90;;;;;;4928250;29;20213;-71
2022/03/29 04:05:08;;;;;;;18.27;10.75;;;7.40;99.90;;;;;;4946251;29;20221;-71
2022/03/29 04:07:34;;;;;;;16.45;11.05;;;7.40;99.90;;;;;;4937362;29;20680;-71
2022/03/29 04:10:01;;;;;;;16.58;10.43;;;7.40;99.90;;;;;;4931799;29;20718;-69
2022/03/29 04:12:28;;;;;;;20.00;11.38;;;7.40;99.90;;;;;;4916309;29;20272;-69
2022/03/29 04:14:54;;;;;;;16.45;10.45;;;7.50;99.90;;;;;;4915770;29;20203;-70
2022/03/29 04:17:21;;;;;;;14.35;9.90;;;7.40;99.90;;;;;;4935393;29;20220;-71
2022/03/29 04:19:49;;;;;;;14.30;10.35;;;7.40;99.90;;;;;;4919635;29;20207;-71
2022/03/29 04:22:18;;;;;;;17.35;10.20;;;7.30;99.90;;;;;;4934612;29;20693;-71
2022/03/29 04:24:45;;;;;;;17.80;10.02;;;7.20;99.90;;;;;;4920509;29;20246;-71
2022/03/29 04:27:12;;;;;;;21.88;10.15;;;7.20;99.90;;;;;;4932525;29;20723;-72
2022/03/29 04:29:38;;;;;;;22.55;11.52;;;7.10;99.90;;;;;;4926866;29;20648;-71
2022/03/29 04:32:06;;;;;;;17.88;11.05;;;7.10;99.90;;;;;;4915214;29;20230;-72
2022/03/29 04:34:34;;;;;;;16.83;11.23;;;7.00;99.90;;;;;;4925936;29;20225;-71
2022/03/29 04:37:02;;;;;;;16.23;10.95;;;7.00;99.90;;;;;;4934438;29;20902;-71
2022/03/29 04:39:30;;;;;;;22.63;10.52;;;6.90;99.90;;;;;;4928563;29;20275;-72
2022/03/29 04:41:58;;;;;;;18.08;11.65;;;6.90;99.90;;;;;;4923347;29;20583;-71
2022/03/29 04:44:25;;;;;;;17.00;10.23;;;6.90;99.90;;;;;;4926782;29;20225;-71
2022/03/29 04:46:51;;;;;;;20.05;10.50;;;6.90;99.90;;;;;;4927653;29;20270;-71
2022/03/29 04:49:18;;;;;;;21.60;11.80;;;6.80;99.90;;;;;;4928833;29;20210;-71
2022/03/29 04:51:45;;;;;;;20.92;11.05;;;6.80;99.90;;;;;;4932070;29;20230;-72
2022/03/29 04:54:13;;;;;;;30.80;12.13;;;6.80;99.90;;;;;;4929724;29;20202;-71
2022/03/29 04:56:40;;;;;;;15.98;11.20;;;6.80;99.90;;;;;;4920464;29;20210;-72
2022/03/29 04:59:06;;;;;;;15.15;9.60;;;6.80;99.90;;;;;;4934096;29;20202;-71
2022/03/29 05:01:33;;;;;;;17.00;10.55;;;6.80;99.90;;;;;;4930580;29;20238;-70
2022/03/29 05:04:00;;;;;;;20.90;13.27;;;6.70;99.90;;;;;;4934557;29;20226;-71
2022/03/29 05:06:28;;;;;;;18.52;11.05;;;6.70;99.90;;;;;;4923101;29;20662;-70
2022/03/29 05:08:54;;;;;;;17.63;12.75;;;6.70;99.90;;;;;;4952810;29;20207;-70
2022/03/29 05:11:22;;;;;;;19.20;11.20;;;6.70;99.90;;;;;;4945123;29;20627;-71
2022/03/29 05:13:50;;;;;;;26.25;12.23;;;6.70;99.90;;;;;;4948252;29;20206;-70
2022/03/29 05:16:17;;;;;;;20.42;11.80;;;6.60;99.90;;;;;;4933936;29;20220;-70
2022/03/29 05:18:45;;;;;;;21.45;11.05;;;6.60;99.90;;;;;;4924461;29;20216;-70
2022/03/29 05:21:12;;;;;;;14.48;10.02;;;6.60;99.90;;;;;;4933100;29;20621;-70
2022/03/29 05:23:39;;;;;;;20.17;11.25;;;6.60;99.90;;;;;;4921709;29;20226;-71
2022/03/29 05:26:05;;;;;;;20.02;12.05;;;6.60;99.90;;;;;;4933857;29;20681;-71
2022/03/29 05:28:34;;;;;;;27.98;11.27;;;6.50;99.90;;;;;;4918252;29;20615;-71
2022/03/29 05:31:01;;;;;;;16.27;10.23;;;6.50;99.90;;;;;;4913964;29;20271;-70
2022/03/29 05:33:27;;;;;;;15.55;8.93;;;6.50;99.90;;;;;;4929881;29;20220;-71
2022/03/29 05:35:54;;;;;;;11.00;7.47;;;6.50;99.90;;;;;;4933817;29;20578;-70
2022/03/29 05:38:21;;;;;;;10.85;7.20;;;6.50;99.90;;;;;;4932120;29;20689;-70
2022/03/29 05:40:47;;;;;;;12.85;7.45;;;6.50;99.90;;;;;;4932001;29;20730;-70
2022/03/29 05:43:14;;;;;;;12.20;7.38;;;6.50;99.90;;;;;;4921718;29;20637;-70
2022/03/29 05:45:42;;;;;;;13.85;7.03;;;6.40;99.90;;;;;;4915248;29;20206;-70
2022/03/29 05:50:54;;;;;;;8.95;5.55;;;6.40;99.90;;;;;;4926411;29;20229;-69
2022/03/29 05:53:21;;;;;;;14.93;5.70;;;6.40;99.90;;;;;;4915316;29;20211;-69
2022/03/29 05:55:48;;;;;;;11.05;4.57;;;6.40;99.90;;;;;;4925452;29;20268;-70
2022/03/29 05:58:16;;;;;;;16.88;6.30;;;6.40;99.90;;;;;;4924802;29;20264;-70
2022/03/29 06:00:44;;;;;;;8.95;5.32;;;6.40;99.90;;;;;;4925694;29;20234;-69
2022/03/29 06:03:11;;;;;;;10.25;4.05;;;6.40;99.90;;;;;;4940846;29;20354;-69
2022/03/29 06:05:41;;;;;;;12.68;4.18;;;6.40;99.90;;;;;;4929222;29;20224;-70
2022/03/29 06:08:08;;;;;;;13.23;4.97;;;6.40;99.90;;;;;;4932557;29;20210;-70
2022/03/29 06:10:35;;;;;;;10.93;3.95;;;6.40;99.90;;;;;;4931198;29;20722;-70
2022/03/29 06:13:02;;;;;;;12.93;4.40;;;6.50;99.90;;;;;;4916558;29;20250;-70
2022/03/29 06:15:29;;;;;;;9.82;3.50;;;6.50;99.90;;;;;;4914946;29;20684;-70
2022/03/29 06:17:57;;;;;;;11.38;4.93;;;6.50;99.90;;;;;;4929812;29;20221;-70
2022/03/29 06:20:23;;;;;;;6.80;5.15;;;6.50;99.90;;;;;;4931649;29;20703;-70
2022/03/29 06:22:50;;;;;;;14.65;4.57;;;6.50;99.90;;;;;;4930602;29;20206;-72
2022/03/29 06:25:17;;;;;;;15.60;3.78;;;6.50;99.90;;;;;;4919027;29;20249;-70
2022/03/29 06:27:43;;;;;;;12.10;4.95;;;6.60;99.90;;;;;;4920225;29;20233;-70
2022/03/29 06:30:11;;;;;;;11.35;4.70;;;6.60;99.90;;;;;;4925106;29;20635;-71
2022/03/29 06:32:46;;;;;;;12.48;5.05;;;6.60;99.90;;;;;;4919921;29;20599;-71
2022/03/29 06:35:14;;;;;;;13.30;4.60;;;6.60;99.90;;;;;;4917481;29;20289;-70
2022/03/29 06:37:41;;;;;;;15.93;4.50;;;6.60;99.90;;;;;;4918264;29;20218;-72
2022/03/29 06:40:09;;;;;;;12.93;3.53;;;6.60;99.90;;;;;;4914897;29;20260;-69
2022/03/29 06:42:36;;;;;;;10.13;3.67;;;6.60;99.90;;;;;;4919181;29;20237;-71
2022/03/29 06:45:04;;;;;;;7.00;3.15;;;6.60;99.90;;;;;;4914344;29;20237;-71
2022/03/29 06:47:31;;;;;;;9.82;3.25;;;6.70;99.90;;;;;;4920464;29;20262;-71
2022/03/29 06:49:57;;;;;;;6.45;3.95;;;6.70;99.90;;;;;;4913833;29;20625;-71
2022/03/29 06:52:27;;;;;;;10.52;4.60;;;6.80;99.90;;;;;;4924766;29;20326;-69
2022/03/29 06:54:54;;;;;;;8.18;2.90;;;6.80;99.90;;;;;;4917530;29;20836;-70
2022/03/29 06:57:21;;;;;;;8.07;3.85;;;6.80;99.90;;;;;;4933661;29;20213;-71
2022/03/29 06:59:48;;;;;;;6.78;3.10;;;6.80;99.90;;;;;;4934255;29;20655;-70
2022/03/29 07:02:14;;;;;;;20.35;4.45;;;6.80;99.90;;;;;;4935148;29;20746;-69
2022/03/29 07:04:41;;;;;;;19.58;4.18;;;6.80;99.90;;;;;;4933764;29;20325;-70
2022/03/29 07:07:08;;;;;;;4.30;2.45;;;6.80;99.90;;;;;;4943554;29;20217;-70
2022/03/29 07:12:21;;;;;;;8.15;3.47;;;6.90;99.90;;;;;;4931331;29;20234;-70
2022/03/29 07:14:48;;;;;;;12.75;2.80;;;7.00;99.90;;;;;;4930275;29;20292;-70
2022/03/29 07:17:16;;;;;;;12.32;3.95;;;7.00;99.90;;;;;;4940963;29;20205;-70
2022/03/29 07:19:43;;;;;;;13.75;3.88;;;7.10;99.90;;;;;;4945027;29;20208;-69
2022/03/29 07:22:09;;;;;;;13.73;3.08;;;7.10;99.90;;;;;;4931861;29;20232;-68
2022/03/29 07:24:38;;;;;;;13.07;4.47;;;7.10;99.90;;;;;;4931317;29;20222;-70
2022/03/29 07:27:05;;;;;;;6.15;2.55;;;7.10;99.90;;;;;;4927192;29;20273;-70
2022/03/29 07:29:33;;;;;;;12.60;3.92;;;7.20;99.90;;;;;;4932677;29;20214;-68
2022/03/29 07:31:59;;;;;;;8.90;3.45;;;7.20;99.90;;;;;;4916950;29;20235;-70
2022/03/29 07:34:26;;;;;;;12.30;3.40;;;7.20;99.90;;;;;;4918280;29;20219;-71
2022/03/29 07:36:56;;;;;;;24.23;6.90;;;7.30;99.90;;;;;;4935721;29;20206;-70
2022/03/29 07:39:22;;;;;;;30.38;8.27;;;7.40;99.90;;;;;;4934783;29;20210;-69
2022/03/29 07:41:50;;;;;;;6.75;4.78;;;7.40;99.90;;;;;;4922285;29;20246;-70
2022/03/29 07:44:17;;;;;;;8.98;4.15;;;7.60;99.90;;;;;;4935667;29;20274;-70
2022/03/29 07:46:44;;;;;;;5.18;2.63;;;7.60;99.90;;;;;;4917989;29;20692;-69
2022/03/29 07:49:11;;;;;;;5.05;2.67;;;7.60;99.90;;;;;;4927997;29;20281;-69
2022/03/29 07:51:38;;;;;;;13.20;4.10;;;7.60;99.90;;;;;;4928511;29;20250;-68
2022/03/29 07:54:05;;;;;;;6.20;3.20;;;7.70;99.90;;;;;;4924057;29;20242;-70
2022/03/29 07:56:32;;;;;;;6.28;2.80;;;7.70;99.90;;;;;;4922824;29;20639;-70
2022/03/29 07:59:00;;;;;;;7.88;2.30;;;7.60;99.90;;;;;;4922543;29;20205;-69
2022/03/29 08:01:28;;;;;;;15.02;2.65;;;7.70;99.90;;;;;;4934240;29;20237;-69
2022/03/29 08:03:56;;;;;;;10.90;2.80;;;7.70;99.90;;;;;;4928893;29;20217;-70
2022/03/29 08:06:22;;;;;;;8.35;3.05;;;7.80;99.90;;;;;;4918023;29;20229;-68
2022/03/29 08:08:49;;;;;;;8.30;2.70;;;7.90;99.90;;;;;;4925776;29;20206;-70
2022/03/29 08:11:16;;;;;;;4.95;1.83;;;7.90;99.90;;;;;;4927816;29;20292;-71
2022/03/29 08:13:43;;;;;;;8.18;2.38;;;7.90;99.90;;;;;;4929828;29;20246;-69
2022/03/29 08:16:11;;;;;;;6.72;3.10;;;7.90;99.90;;;;;;4914852;29;20470;-70
2022/03/29 08:18:39;;;;;;;10.55;3.38;;;7.90;99.90;;;;;;4939547;29;20209;-70
2022/03/29 08:21:47;;;;;;;4.15;2.67;;;7.90;99.90;;;;;;4954335;29;20324;-71
2022/03/29 08:23:53;;;;;;;8.13;3.45;;;7.90;99.90;;;;;;4937316;29;20235;-69
2022/03/29 08:26:20;;;;;;;2.35;2.13;;;7.90;99.90;;;;;;4924856;29;20277;-70
2022/03/29 08:28:46;;;;;;;6.85;2.90;;;8.00;99.90;;;;;;4941141;29;20213;-70
2022/03/29 08:31:14;;;;;;;7.93;2.72;;;8.00;99.90;;;;;;4933754;29;20317;-70
2022/03/29 08:33:41;;;;;;;10.52;2.22;;;8.00;99.90;;;;;;4931678;29;20198;-70
2022/03/29 08:36:08;;;;;;;6.45;2.55;;;8.00;99.90;;;;;;4928364;29;20217;-70
2022/03/29 08:38:34;;;;;;;3.60;2.28;;;8.10;99.90;;;;;;4917488;29;20218;-70
2022/03/29 08:41:01;;;;;;;5.53;2.67;;;8.20;99.90;;;;;;4933423;29;20225;-70
2022/03/29 08:43:31;;;;;;;9.05;2.53;;;8.30;99.90;;;;;;4931386;29;20218;-70
2022/03/29 08:45:58;;;;;;;5.47;2.70;;;8.30;99.90;;;;;;4939208;29;20310;-71
2022/03/29 08:48:28;;;;;;;5.13;3.65;;;8.40;99.90;;;;;;4951808;29;20213;-70
2022/03/29 08:50:57;;;;;;;6.63;6.00;;;8.50;99.90;;;;;;4930079;29;20234;-70
2022/03/29 08:53:24;;;;;;;7.57;2.72;;;8.40;99.90;;;;;;4916719;29;20252;-71
2022/03/29 08:55:52;;;;;;;8.02;2.72;;;8.50;99.90;;;;;;4925690;29;20257;-70
2022/03/29 08:58:18;;;;;;;4.63;3.10;;;8.60;99.90;;;;;;4920292;29;20739;-71
2022/03/29 09:00:48;;;;;;;7.82;3.20;;;8.60;99.90;;;;;;4914036;29;20767;-70
2022/03/29 09:03:16;;;;;;;3.40;2.42;;;8.70;99.90;;;;;;4918878;29;20210;-70
2022/03/29 09:05:48;;;;;;;8.73;3.25;;;8.80;99.90;;;;;;4932342;29;20226;-70
2022/03/29 09:08:15;;;;;;;4.40;1.90;;;8.80;99.90;;;;;;4934598;29;20225;-71
2022/03/29 09:10:44;;;;;;;2.85;2.63;;;8.70;99.90;;;;;;4923790;29;20235;-69
2022/03/29 09:13:16;;;;;;;5.60;2.90;;;8.70;99.90;;;;;;4928318;29;20631;-69
2022/03/29 09:15:42;;;;;;;5.78;2.85;;;8.80;99.90;;;;;;4914429;29;20207;-68
2022/03/29 09:18:10;;;;;;;5.72;2.10;;;8.90;99.90;;;;;;4921085;29;20216;-69
2022/03/29 09:20:36;;;;;;;6.68;2.50;;;8.90;99.90;;;;;;4955004;23;20231;-66
2022/03/29 09:23:05;;;;;;;3.60;2.15;;;8.90;99.90;;;;;;4897371;29;20215;-66
2022/03/29 09:25:36;;;;;;;6.78;3.28;;;9.00;99.90;;;;;;4895867;29;20223;-66
2022/03/29 09:28:04;;;;;;;8.77;2.60;;;9.00;99.90;;;;;;4896350;29;20579;-67
2022/03/29 09:30:38;;;;;;;3.35;1.80;;;9.00;99.90;;;;;;4892780;29;20311;-67
2022/03/29 09:33:08;;;;;;;3.55;1.60;;;9.10;99.90;;;;;;4877695;29;20650;-66
2022/03/29 09:35:51;;;;;;;2.40;1.92;;;9.10;99.90;;;;;;4878774;29;20208;-67
2022/03/29 09:38:24;;;;;;;3.92;1.90;;;9.10;99.90;;;;;;4858936;29;20734;-65
2022/03/29 09:40:51;;;;;;;2.88;1.85;;;9.00;99.90;;;;;;4865841;29;20721;-65
2022/03/29 09:43:21;;;;;;;2.10;1.75;;;9.00;99.90;;;;;;4859020;29;20219;-66
2022/03/29 09:45:50;;;;;;;6.90;3.20;;;9.00;99.90;;;;;;4861530;29;20604;-66
2022/03/29 09:48:35;;;;;;;7.47;1.85;;;9.10;99.90;;;;;;4872863;29;20211;-66
2022/03/29 09:51:19;;;;;;;4.13;2.22;;;9.10;99.90;;;;;;4876108;29;20224;-66
2022/03/29 09:53:51;;;;;;;3.70;2.63;;;9.20;99.90;;;;;;4862435;29;21158;-65
2022/03/29 09:56:24;;;;;;;6.40;1.75;;;9.20;99.90;;;;;;4876987;29;20637;-65
2022/03/29 09:59:03;;;;;;;3.17;2.50;;;9.20;99.90;;;;;;4869524;29;20214;-66
2022/03/29 10:01:30;;;;;;;6.35;2.30;;;9.40;99.90;;;;;;4863251;29;20259;-66
2022/03/29 10:04:00;;;;;;;5.53;2.97;;;9.40;99.90;;;;;;4870709;29;20567;-66
2022/03/29 10:06:28;;;;;;;5.70;1.67;;;9.50;99.90;;;;;;4864927;29;20638;-66
2022/03/29 10:11:45;;;;;;;4.60;1.70;;;9.50;99.90;;;;;;4875613;29;20235;-67
2022/03/29 10:14:15;;;;;;;6.10;2.55;;;9.60;99.90;;;;;;4877375;29;20566;-66
2022/03/29 10:16:45;;;;;;;3.40;1.92;;;9.50;99.90;;;;;;4876566;29;20690;-66
2022/03/29 10:19:12;;;;;;;8.25;2.30;;;9.50;99.90;;;;;;4877203;29;20216;-66
2022/03/29 10:21:39;;;;;;;3.08;1.80;;;9.60;99.90;;;;;;4874974;29;20246;-66
2022/03/29 10:24:08;;;;;;;2.88;1.50;;;9.60;99.90;;;;;;4876769;29;20211;-67
2022/03/29 10:26:35;;;;;;;9.90;3.15;;;9.70;99.90;;;;;;4883451;29;20240;-66
2022/03/29 10:29:02;;;;;;;3.05;1.55;;;9.70;99.90;;;;;;4878900;29;20210;-66
2022/03/29 10:31:31;;;;;;;2.15;1.52;;;9.80;99.90;;;;;;4876029;29;20224;-66
2022/03/29 10:34:18;;;;;;;6.65;1.83;;;9.80;99.90;;;;;;4876846;29;20641;-65
2022/03/29 10:37:14;;;;;;;5.43;1.80;;;9.80;99.90;;;;;;4874614;29;20626;-72
2022/03/29 10:39:48;;;;;;;3.50;2.17;;;9.90;99.90;;;;;;4863064;29;20208;-66
2022/03/29 10:42:25;;;;;;;5.10;2.08;;;9.90;99.90;;;;;;4876844;29;20272;-66
2022/03/29 10:45:07;;;;;;;3.50;1.95;;;9.90;99.90;;;;;;4860878;29;20304;-67
2022/03/29 10:47:34;;;;;;;5.53;1.80;;;10.00;99.90;;;;;;4862638;29;20532;-67
2022/03/29 10:50:02;;;;;;;8.82;2.20;;;10.00;99.90;;;;;;4878416;29;20203;-67
2022/03/29 10:52:30;;;;;;;8.38;1.35;;;10.00;99.90;;;;;;4879524;29;20228;-67
2022/03/29 10:55:25;;;;;;;4.85;1.65;;;10.20;99.90;;;;;;4875435;29;20212;-67
2022/03/29 10:58:10;;;;;;;1.98;1.30;;;10.20;99.90;;;;;;4879943;29;20569;-68
2022/03/29 11:00:38;;;;;;;7.30;1.90;;;10.30;99.90;;;;;;4879543;29;20584;-68
2022/03/29 11:03:10;;;;;;;3.10;1.50;;;10.30;99.90;;;;;;4879635;29;20247;-68
2022/03/29 11:06:10;;;;;;;1.80;1.60;;;10.20;99.90;;;;;;4879827;29;20232;-68
2022/03/29 11:08:41;;;;;;;1.70;1.60;;;10.30;99.90;;;;;;4879101;29;20672;-69
2022/03/29 11:11:36;;;;;;;5.68;1.60;;;10.40;99.90;;;;;;4879846;29;20235;-68
2022/03/29 11:14:40;;;;;;;7.55;1.75;;;10.40;99.90;;;;;;4879749;29;20285;-68
2022/03/29 11:17:41;;;;;;;4.55;1.58;;;10.30;99.90;;;;;;4874220;29;20244;-68
2022/03/29 11:20:36;;;;;;;3.88;1.30;;;10.20;99.90;;;;;;4874941;29;20238;-69
2022/03/29 11:23:05;;;;;;;3.13;1.30;;;10.20;99.90;;;;;;4879533;29;20307;-68
2022/03/29 11:25:39;;;;;;;4.50;1.35;;;10.20;99.90;;;;;;4878994;29;20263;-69
2022/03/29 11:28:09;;;;;;;3.95;1.50;;;10.20;99.90;;;;;;4879559;29;20212;-68
2022/03/29 11:30:36;;;;;;;3.50;1.70;;;10.10;99.90;;;;;;4879709;29;20290;-69
2022/03/29 11:33:04;;;;;;;2.95;2.20;;;10.10;99.90;;;;;;4883819;29;20207;-69
2022/03/29 11:35:32;;;;;;;6.97;3.00;;;10.10;99.90;;;;;;4878795;29;20388;-69
2022/03/29 11:38:08;;;;;;;11.65;2.70;;;10.20;99.90;;;;;;4878305;29;20291;-69
2022/03/29 11:40:36;;;;;;;2.28;1.85;;;10.20;99.90;;;;;;4878063;29;20299;-68
2022/03/29 11:43:05;;;;;;;2.50;2.05;;;10.20;99.90;;;;;;4879627;29;20215;-69
2022/03/29 11:45:40;;;;;;;1.27;1.27;;;10.30;99.90;;;;;;4878428;29;20239;-68
2022/03/29 11:48:11;;;;;;;6.72;2.28;;;10.20;99.90;;;;;;4878933;29;20299;-69
2022/03/29 11:50:40;;;;;;;4.97;2.10;;;10.30;99.90;;;;;;4877396;29;20323;-69
2022/03/29 11:53:17;;;;;;;2.25;1.88;;;10.50;99.90;;;;;;4878599;29;20648;-68
2022/03/29 11:55:43;;;;;;;2.50;1.65;;;10.50;99.90;;;;;;4878708;29;20300;-69
2022/03/29 11:58:29;;;;;;;2.67;1.20;;;10.60;99.90;;;;;;4878841;29;20212;-69
2022/03/29 12:01:02;;;;;;;2.40;1.60;;;10.70;99.90;;;;;;4877289;29;20236;-69
2022/03/29 12:03:30;;;;;;;5.55;1.60;;;10.70;99.90;;;;;;4878104;29;20216;-69
2022/03/29 12:06:08;;;;;;;1.90;1.60;;;10.80;99.90;;;;;;4878522;29;20288;-68
2022/03/29 12:08:49;;;;;;;2.17;2.08;;;10.90;99.90;;;;;;4878618;29;20311;-67
2022/03/29 12:11:17;;;;;;;2.53;2.33;;;11.20;99.90;;;;;;4877761;29;20292;-69
2022/03/29 12:13:46;;;;;;;1.58;1.50;;;11.30;99.90;;;;;;4878545;29;20219;-69
2022/03/29 12:16:22;;;;;;;3.67;1.50;;;11.30;99.90;;;;;;4877576;29;20212;-69
2022/03/29 12:18:50;;;;;;;1.48;1.38;;;11.10;99.90;;;;;;4878820;29;20243;-69
2022/03/29 12:21:20;;;;;;;4.00;2.40;;;11.10;99.90;;;;;;4877880;29;20650;-69
2022/03/29 12:23:49;;;;;;;1.77;1.67;;;10.90;99.90;;;;;;4877833;29;20247;-69
2022/03/29 12:26:19;;;;;;;3.22;1.60;;;10.80;99.90;;;;;;4878334;29;20659;-69
2022/03/29 12:28:47;;;;;;;5.25;1.20;;;10.90;99.90;;;;;;4878314;29;20224;-69
2022/03/29 12:31:17;;;;;;;6.95;1.58;;;10.90;99.90;;;;;;4876830;29;20272;-69
2022/03/29 12:33:46;;;;;;;6.43;1.50;;;11.00;99.90;;;;;;4875524;29;20298;-69
2022/03/29 12:36:14;;;;;;;5.47;1.70;;;11.20;99.90;;;;;;4885890;29;20204;-69
2022/03/29 12:38:43;;;;;;;0.93;0.93;;;11.30;99.90;;;;;;4877416;29;20211;-70
2022/03/29 12:41:12;;;;;;;2.80;1.58;;;11.40;99.90;;;;;;4877267;29;20227;-69
2022/03/29 12:43:39;;;;;;;1.35;1.20;;;11.40;99.90;;;;;;4878064;29;20247;-69
2022/03/29 12:46:10;;;;;;;4.18;1.15;;;11.30;99.90;;;;;;4877517;29;20692;-69
2022/03/29 12:48:39;;;;;;;2.40;2.17;;;11.00;99.90;;;;;;4877753;29;20216;-69
2022/03/29 12:51:07;;;;;;;1.70;1.60;;;10.90;99.90;;;;;;4877308;29;20284;-69
2022/03/29 12:53:34;;;;;;;2.70;1.30;;;11.10;99.90;;;;;;4877259;29;20327;-69
2022/03/29 12:56:09;;;;;;;3.00;1.60;;;11.20;99.90;;;;;;4877963;29;20311;-69
2022/03/29 12:58:38;;;;;;;2.28;1.73;;;11.30;99.90;;;;;;4877673;29;20240;-69
2022/03/29 13:01:07;;;;;;;5.90;1.67;;;11.30;99.90;;;;;;4876776;29;20239;-68
2022/03/29 13:03:38;;;;;;;1.27;1.08;;;11.30;99.90;;;;;;4877498;29;20218;-68
2022/03/29 13:06:06;;;;;;;1.95;1.20;;;11.20;99.90;;;;;;4877232;29;20315;-68
2022/03/29 13:08:33;;;;;;;2.60;1.80;;;11.00;99.90;;;;;;4876696;29;20211;-67
2022/03/29 13:11:16;;;;;;;1.10;1.10;;;11.10;99.90;;;;;;4875611;29;20303;-70
2022/03/29 13:13:43;;;;;;;4.57;1.88;;;11.10;99.90;;;;;;4877227;29;20204;-69
2022/03/29 13:16:21;;;;;;;3.75;1.10;;;11.20;99.90;;;;;;4877186;29;20264;-70
2022/03/29 13:18:50;;;;;;;8.40;3.40;;;11.30;99.90;;;;;;4865881;29;20212;-70
2022/03/29 13:21:19;;;;;;;1.27;0.90;;;11.20;99.90;;;;;;4876484;29;20291;-70
2022/03/29 13:23:48;;;;;;;2.72;1.23;;;11.20;99.90;;;;;;4875584;29;20212;-71
2022/03/29 13:26:16;;;;;;;1.20;1.15;;;11.20;99.90;;;;;;4880417;29;20260;-69
2022/03/29 13:28:44;;;;;;;2.83;1.50;;;11.30;99.90;;;;;;4878212;29;20681;-70
2022/03/29 13:31:14;;;;;;;2.15;1.40;;;11.40;99.90;;;;;;4876352;29;20238;-69
2022/03/29 13:33:41;;;;;;;1.95;0.95;;;11.40;99.90;;;;;;4877336;29;20219;-69
2022/03/29 13:36:10;;;;;;;3.95;1.58;;;11.40;99.90;;;;;;4875471;29;20196;-71
2022/03/29 13:38:39;;;;;;;1.35;1.25;;;11.40;99.90;;;;;;4877017;29;20267;-70
2022/03/29 13:41:06;;;;;;;1.95;1.48;;;11.30;99.90;;;;;;4876084;29;20268;-69
2022/03/29 13:43:33;;;;;;;1.55;1.25;;;11.50;99.90;;;;;;4877254;29;20219;-69
2022/03/29 13:46:00;;;;;;;2.83;1.38;;;11.60;99.90;;;;;;4876705;29;20243;-70
2022/03/29 13:48:29;;;;;;;1.30;1.20;;;11.60;99.90;;;;;;4877196;29;20271;-70
2022/03/29 13:50:56;;;;;;;4.78;1.10;;;11.50;99.90;;;;;;4873772;29;20263;-70
2022/03/29 13:53:23;;;;;;;1.95;1.60;;;11.40;99.90;;;;;;4876497;29;20344;-70
2022/03/29 13:55:51;;;;;;;5.28;1.02;;;11.40;99.90;;;;;;4877169;29;20614;-68
2022/03/29 13:58:18;;;;;;;2.65;1.05;;;11.40;99.90;;;;;;4876700;29;20215;-68
2022/03/29 14:00:45;;;;;;;6.78;1.85;;;11.40;99.90;;;;;;4869530;29;20296;-68
2022/03/29 14:03:13;;;;;;;2.40;1.60;;;11.40;99.90;;;;;;4870552;29;20211;-68
2022/03/29 14:05:40;;;;;;;2.03;0.82;;;11.30;99.90;;;;;;4881677;29;20216;-68
2022/03/29 14:08:07;;;;;;;2.42;1.75;;;11.30;99.90;;;;;;4880939;29;20287;-68
2022/03/29 14:10:35;;;;;;;2.08;1.77;;;11.40;99.90;;;;;;4879322;29;20232;-68
2022/03/29 14:13:04;;;;;;;1.90;1.10;;;11.40;99.90;;;;;;4879756;29;20208;-67
2022/03/29 14:15:32;;;;;;;1.42;1.35;;;11.40;99.90;;;;;;4879841;29;20204;-68
2022/03/29 14:17:59;;;;;;;3.65;1.88;;;11.40;99.90;;;;;;4880713;29;20725;-68
2022/03/29 14:20:26;;;;;;;1.17;1.05;;;11.40;99.90;;;;;;4881017;29;20711;-69
2022/03/29 14:22:53;;;;;;;1.58;1.23;;;11.40;99.90;;;;;;4881608;29;20705;-68
2022/03/29 14:25:22;;;;;;;2.15;1.20;;;11.40;99.90;;;;;;4880835;29;20220;-68
2022/03/29 14:27:48;;;;;;;2.97;1.63;;;11.30;99.90;;;;;;4880922;29;20569;-69
2022/03/29 14:30:16;;;;;;;1.00;1.00;;;11.30;99.90;;;;;;4880046;29;20216;-66
2022/03/29 14:32:43;;;;;;;4.20;2.00;;;11.20;99.90;;;;;;4881911;29;20204;-68
2022/03/29 14:35:10;;;;;;;4.28;1.02;;;11.20;99.90;;;;;;4878309;29;20219;-67
2022/03/29 14:37:39;;;;;;;4.30;1.10;;;11.20;99.90;;;;;;4883575;29;20207;-66
2022/03/29 14:40:09;;;;;;;1.08;1.00;;;11.20;99.90;;;;;;4869280;29;20212;-67
2022/03/29 14:42:36;;;;;;;3.65;1.17;;;11.10;99.90;;;;;;4880371;29;20232;-68
2022/03/29 14:45:04;;;;;;;1.45;1.30;;;11.20;99.90;;;;;;4878786;29;20268;-67
2022/03/29 14:47:34;;;;;;;2.60;1.52;;;11.10;99.90;;;;;;4879600;29;20227;-67
2022/03/29 14:50:01;;;;;;;3.63;1.75;;;11.10;99.90;;;;;;4878981;29;20216;-67
2022/03/29 14:52:27;;;;;;;2.75;1.35;;;11.00;99.90;;;;;;4879890;29;20228;-67
2022/03/29 14:54:54;;;;;;;1.73;1.08;;;11.00;99.90;;;;;;4878290;29;20234;-67
2022/03/29 14:57:21;;;;;;;6.95;1.27;;;10.90;99.90;;;;;;4868471;29;20209;-67
2022/03/29 14:59:47;;;;;;;2.28;1.10;;;10.90;99.90;;;;;;4876638;29;20287;-68
2022/03/29 15:02:14;;;;;;;1.42;1.42;;;10.90;99.90;;;;;;4861325;29;20232;-67
2022/03/29 15:04:42;;;;;;;4.13;1.00;;;10.80;99.90;;;;;;4877992;29;20256;-68
2022/03/29 15:07:08;;;;;;;2.65;2.00;;;10.80;99.90;;;;;;4873515;29;20228;-67
2022/03/29 15:09:37;;;;;;;2.20;1.80;;;10.70;99.90;;;;;;4878752;29;20366;-68
2022/03/29 15:12:04;;;;;;;3.60;1.77;;;10.70;99.90;;;;;;4878834;29;20235;-68
2022/03/29 15:14:31;;;;;;;2.47;1.95;;;10.70;99.90;;;;;;4878605;29;20265;-67
2022/03/29 15:16:59;;;;;;;4.10;1.80;;;10.70;99.90;;;;;;4878962;29;20215;-68
2022/03/29 15:19:25;;;;;;;3.72;1.55;;;10.60;99.90;;;;;;4876173;29;20236;-68
2022/03/29 15:21:54;;;;;;;7.88;1.27;;;10.60;99.90;;;;;;4876036;29;20243;-69
2022/03/29 15:24:21;;;;;;;7.78;1.58;;;10.50;99.90;;;;;;4875600;29;20223;-69
2022/03/29 15:26:48;;;;;;;1.38;0.90;;;10.50;99.90;;;;;;4878710;29;20306;-68
2022/03/29 15:29:15;;;;;;;2.83;1.52;;;10.50;99.90;;;;;;4878739;29;20704;-68
2022/03/29 15:31:42;;;;;;;1.17;1.17;;;10.40;99.90;;;;;;4877748;29;20228;-68
2022/03/29 15:34:09;;;;;;;6.70;1.85;;;10.30;99.90;;;;;;4879114;29;20212;-68
2022/03/29 15:36:38;;;;;;;1.25;0.93;;;10.40;99.90;;;;;;4879034;29;20275;-68
2022/03/29 15:39:06;;;;;;;1.75;1.10;;;10.40;99.90;;;;;;4871139;29;20359;-69
2022/03/29 15:41:33;;;;;;;1.38;1.25;;;10.40;99.90;;;;;;4873373;29;20754;-68
2022/03/29 15:44:00;;;;;;;4.07;2.10;;;10.30;99.90;;;;;;4876893;29;20235;-68
2022/03/29 15:46:26;;;;;;;6.20;1.42;;;10.30;99.90;;;;;;4876410;29;20689;-68
2022/03/29 15:48:53;;;;;;;2.60;2.40;;;10.30;99.90;;;;;;4876915;29;20208;-68
2022/03/29 15:51:22;;;;;;;3.50;1.65;;;10.30;99.90;;;;;;4877919;29;20232;-68
2022/03/29 15:53:48;;;;;;;1.60;1.48;;;10.20;99.90;;;;;;4878467;29;20212;-68
2022/03/29 15:56:16;;;;;;;5.15;1.45;;;10.20;99.90;;;;;;4878453;29;20264;-68
2022/03/29 15:58:43;;;;;;;2.65;1.55;;;10.10;99.90;;;;;;4878084;29;20208;-68
2022/03/29 16:01:10;;;;;;;2.13;1.85;;;10.00;99.90;;;;;;4877392;29;20232;-68
2022/03/29 16:03:36;;;;;;;2.63;2.10;;;10.00;99.90;;;;;;4876879;29;20259;-68
2022/03/29 16:06:03;;;;;;;1.85;1.30;;;10.00;99.90;;;;;;4878282;29;20736;-68
2022/03/29 16:08:34;;;;;;;4.80;2.00;;;9.90;99.90;;;;;;4875785;29;20729;-69
2022/03/29 16:11:01;;;;;;;1.10;1.00;;;9.90;99.90;;;;;;4878153;29;20276;-67
2022/03/29 16:13:29;;;;;;;2.30;1.15;;;9.80;99.90;;;;;;4870325;29;20592;-68
2022/03/29 16:15:56;;;;;;;1.70;1.70;;;9.70;99.90;;;;;;4877993;29;20629;-68
2022/03/29 16:18:23;;;;;;;2.60;1.10;;;9.70;99.90;;;;;;4881168;29;20201;-68
2022/03/29 16:20:50;;;;;;;3.13;1.55;;;9.70;99.90;;;;;;4881567;29;20268;-69
2022/03/29 16:23:17;;;;;;;1.67;1.00;;;9.60;99.90;;;;;;4872907;29;20303;-68
2022/03/29 16:25:44;;;;;;;6.93;1.00;;;9.60;99.90;;;;;;4877654;29;20272;-68
2022/03/29 16:28:12;;;;;;;1.33;0.60;;;9.50;99.90;;;;;;4871497;29;20247;-69
2022/03/29 16:30:41;;;;;;;4.80;1.13;;;9.50;99.90;;;;;;4877995;29;20288;-68
2022/03/29 16:33:08;;;;;;;6.03;1.40;;;9.50;99.90;;;;;;4879085;29;20263;-69
2022/03/29 16:35:34;;;;;;;3.17;1.23;;;9.40;99.90;;;;;;4877446;29;20208;-68
2022/03/29 16:38:01;;;;;;;1.20;1.15;;;9.30;99.90;;;;;;4871177;29;20211;-68
2022/03/29 16:40:28;;;;;;;1.73;1.05;;;9.20;99.90;;;;;;4872223;29;20247;-68
2022/03/29 16:42:55;;;;;;;1.42;1.00;;;9.20;99.90;;;;;;4873325;29;20215;-68
2022/03/29 16:45:21;;;;;;;1.50;1.20;;;9.10;99.90;;;;;;4870404;29;20730;-69
2022/03/29 16:47:49;;;;;;;2.10;1.35;;;9.00;99.90;;;;;;4876531;29;20224;-68
2022/03/29 16:50:16;;;;;;;0.65;0.65;;;9.00;99.90;;;;;;4876922;29;20220;-69
2022/03/29 16:52:43;;;;;;;1.75;0.77;;;9.00;99.90;;;;;;4877938;29;20216;-69
2022/03/29 16:55:10;;;;;;;2.80;1.20;;;8.90;99.90;;;;;;4876664;29;20284;-70
2022/03/29 16:57:36;;;;;;;1.25;1.15;;;8.80;99.90;;;;;;4877360;29;20203;-69
2022/03/29 17:00:04;;;;;;;7.25;2.25;;;8.80;99.90;;;;;;4876219;29;20220;-69
2022/03/29 17:02:31;;;;;;;2.97;1.80;;;8.80;99.90;;;;;;4877851;29;20768;-69
2022/03/29 17:04:59;;;;;;;1.35;1.30;;;8.70;99.90;;;;;;4877733;29;20207;-69
2022/03/29 17:07:26;;;;;;;2.63;1.30;;;8.70;99.90;;;;;;4877480;29;20242;-69